Time,TemperatureF,DewpointF,PressureIn,WindDirection,WindDirectionDegrees,WindSpeedMPH,WindSpeedGustMPH,Humidity,HourlyPrecipIn,Conditions,Clouds,dailyrainin,SolarRadiationWatts/m^2,SoftwareType,DateUTC
2013-02-26 00:04:00,73.6,69.2,29.97,ENE,59,3.0,4.0,86,0.00,,,0.00,0,Wunderground v.1.15,2013-02-25 13:04:00,
2013-02-26 00:09:00,73.6,68.8,29.96,ENE,68,4.0,-999.0,85,0.00,,,0.00,0,Wunderground v.1.15,2013-02-25 13:09:00,
2013-02-26 00:14:00,73.6,68.8,29.97,East,88,4.0,7.0,85,0.00,,,0.00,0,Wunderground v.1.15,2013-02-25 13:14:00,
2013-02-26 00:19:00,73.6,68.8,29.97,East,84,5.0,7.0,85,0.00,,,0.00,0,Wunderground v.1.15,2013-02-25 13:19:00,
2013-02-26 00:24:00,73.5,68.7,29.97,NNE,12,5.0,5.0,85,0.00,,,0.00,0,Wunderground v.1.15,2013-02-25 13:24:00,
2013-02-26 00:29:00,73.5,68.7,29.97,East,88,5.0,5.0,85,0.00,,,0.00,0,Wunderground v.1.15,2013-02-25 13:29:00,
2013-02-26 00:34:00,73.6,68.8,29.96,ENE,68,4.0,-999.0,85,0.00,,,0.00,0,Wunderground v.1.15,2013-02-25 13:34:00,
2013-02-26 00:39:00,73.4,68.6,29.97,ENE,74,4.0,5.0,85,0.00,,,0.00,0,Wunderground v.1.15,2013-02-25 13:39:00,
2013-02-26 00:44:00,73.6,68.8,29.96,ENE,68,4.0,-999.0,85,0.00,,,0.00,0,Wunderground v.1.15,2013-02-25 13:44:00,
2013-02-26 00:49:00,73.4,68.6,29.96,NE,45,4.0,-999.0,85,0.00,,,0.00,0,Wunderground v.1.15,2013-02-25 13:49:00,
2013-02-26 00:54:00,73.4,68.6,29.96,NE,45,4.0,-999.0,85,0.00,,,0.00,0,Wunderground v.1.15,2013-02-25 13:54:00,
2013-02-26 00:59:00,73.4,68.6,29.96,NE,45,4.0,-999.0,85,0.00,,,0.00,0,Wunderground v.1.15,2013-02-25 13:59:00,
2013-02-26 01:04:00,73.4,68.6,29.96,NE,45,4.0,-999.0,85,0.00,,,0.00,0,Wunderground v.1.15,2013-02-25 14:04:00,
2013-02-26 01:09:00,73.4,68.6,29.96,NE,45,4.0,-999.0,85,0.00,,,0.00,0,Wunderground v.1.15,2013-02-25 14:09:00,
2013-02-26 01:14:00,73.4,68.6,29.96,NE,45,4.0,-999.0,85,0.00,,,0.00,0,Wunderground v.1.15,2013-02-25 14:14:00,
2013-02-26 01:19:00,73.3,68.2,29.96,NE,45,3.0,-999.0,84,0.00,,,0.00,0,Wunderground v.1.15,2013-02-25 14:19:00,
2013-02-26 01:24:00,73.3,68.2,29.96,NE,45,3.0,-999.0,84,0.00,,,0.00,0,Wunderground v.1.15,2013-02-25 14:24:00,
2013-02-26 01:29:00,73.3,68.2,29.96,NE,45,3.0,-999.0,84,0.00,,,0.00,0,Wunderground v.1.15,2013-02-25 14:29:00,
2013-02-26 01:34:00,73.3,68.2,29.96,NE,45,3.0,-999.0,84,0.00,,,0.00,0,Wunderground v.1.15,2013-02-25 14:34:00,
2013-02-26 01:39:00,73.3,68.2,29.96,NE,45,3.0,-999.0,84,0.00,,,0.00,0,Wunderground v.1.15,2013-02-25 14:39:00,
2013-02-26 01:44:00,73.3,68.2,29.96,NE,45,3.0,-999.0,84,0.00,,,0.00,0,Wunderground v.1.15,2013-02-25 14:44:00,
2013-02-26 01:49:00,73.1,68.0,29.95,NE,45,2.0,-999.0,84,0.00,,,0.00,0,Wunderground v.1.15,2013-02-25 14:49:00,
2013-02-26 01:54:00,73.1,68.0,29.95,NE,45,2.0,-999.0,84,0.00,,,0.00,0,Wunderground v.1.15,2013-02-25 14:54:00,
2013-02-26 01:59:00,73.1,68.0,29.95,NE,45,2.0,-999.0,84,0.00,,,0.00,0,Wunderground v.1.15,2013-02-25 14:59:00,
2013-02-26 02:04:00,73.1,68.0,29.95,NE,45,2.0,-999.0,84,0.00,,,0.00,0,Wunderground v.1.15,2013-02-25 15:04:00,
2013-02-26 02:09:00,73.1,68.0,29.95,NE,45,2.0,-999.0,84,0.00,,,0.00,0,Wunderground v.1.15,2013-02-25 15:09:00,
2013-02-26 02:14:00,73.1,68.0,29.95,NE,45,2.0,-999.0,84,0.00,,,0.00,0,Wunderground v.1.15,2013-02-25 15:14:00,
2013-02-26 02:19:00,72.7,67.9,29.94,NE,45,2.0,-999.0,85,0.00,,,0.00,0,Wunderground v.1.15,2013-02-25 15:19:00,
2013-02-26 02:24:00,72.7,67.9,29.94,NE,45,2.0,-999.0,85,0.00,,,0.00,0,Wunderground v.1.15,2013-02-25 15:24:00,
2013-02-26 02:29:00,72.7,67.9,29.94,NE,45,2.0,-999.0,85,0.00,,,0.00,0,Wunderground v.1.15,2013-02-25 15:29:00,
2013-02-26 02:34:00,72.7,67.9,29.94,NE,45,2.0,-999.0,85,0.00,,,0.00,0,Wunderground v.1.15,2013-02-25 15:34:00,
2013-02-26 02:39:00,72.7,67.9,29.94,NE,45,2.0,-999.0,85,0.00,,,0.00,0,Wunderground v.1.15,2013-02-25 15:39:00,
2013-02-26 02:44:00,72.7,67.9,29.94,NE,45,2.0,-999.0,85,0.00,,,0.00,0,Wunderground v.1.15,2013-02-25 15:44:00,
2013-02-26 02:49:00,72.3,67.5,29.94,NE,45,3.0,-999.0,85,0.00,,,0.00,0,Wunderground v.1.15,2013-02-25 15:49:00,
2013-02-26 02:54:00,72.3,67.5,29.94,NE,45,3.0,-999.0,85,0.00,,,0.00,0,Wunderground v.1.15,2013-02-25 15:54:00,
2013-02-26 02:59:00,72.3,67.5,29.94,NE,45,3.0,-999.0,85,0.00,,,0.00,0,Wunderground v.1.15,2013-02-25 15:59:00,
2013-02-26 03:04:00,72.3,67.5,29.94,NE,45,3.0,-999.0,85,0.00,,,0.00,0,Wunderground v.1.15,2013-02-25 16:04:00,
2013-02-26 03:09:00,72.3,67.5,29.94,NE,45,3.0,-999.0,85,0.00,,,0.00,0,Wunderground v.1.15,2013-02-25 16:09:00,
2013-02-26 03:14:00,72.3,67.5,29.94,NE,45,3.0,-999.0,85,0.00,,,0.00,0,Wunderground v.1.15,2013-02-25 16:14:00,
2013-02-26 03:19:00,71.9,67.5,29.93,ENE,68,3.0,-999.0,86,0.00,,,0.00,0,Wunderground v.1.15,2013-02-25 16:19:00,
2013-02-26 03:24:00,71.9,67.5,29.93,ENE,68,3.0,-999.0,86,0.00,,,0.00,0,Wunderground v.1.15,2013-02-25 16:24:00,
2013-02-26 03:29:00,71.9,67.5,29.93,ENE,68,3.0,-999.0,86,0.00,,,0.00,0,Wunderground v.1.15,2013-02-25 16:29:00,
2013-02-26 03:34:00,71.9,67.5,29.93,ENE,68,3.0,-999.0,86,0.00,,,0.00,0,Wunderground v.1.15,2013-02-25 16:34:00,
2013-02-26 03:39:00,71.9,67.5,29.93,ENE,68,3.0,-999.0,86,0.00,,,0.00,0,Wunderground v.1.15,2013-02-25 16:39:00,
2013-02-26 03:44:00,71.9,67.5,29.93,ENE,68,3.0,-999.0,86,0.00,,,0.00,0,Wunderground v.1.15,2013-02-25 16:44:00,
2013-02-26 03:49:00,71.6,67.5,29.93,NE,45,2.0,-999.0,87,0.00,,,0.00,0,Wunderground v.1.15,2013-02-25 16:49:00,
2013-02-26 03:54:00,71.6,67.5,29.93,NE,45,2.0,-999.0,87,0.00,,,0.00,0,Wunderground v.1.15,2013-02-25 16:54:00,
2013-02-26 03:59:00,71.6,67.5,29.93,NE,45,2.0,-999.0,87,0.00,,,0.00,0,Wunderground v.1.15,2013-02-25 16:59:00,
2013-02-26 04:04:00,71.6,67.5,29.93,NE,45,2.0,-999.0,87,0.00,,,0.00,0,Wunderground v.1.15,2013-02-25 17:04:00,
2013-02-26 04:09:00,71.6,67.5,29.93,NE,45,2.0,-999.0,87,0.00,,,0.00,0,Wunderground v.1.15,2013-02-25 17:09:00,
2013-02-26 04:14:00,71.6,67.5,29.93,NE,45,2.0,-999.0,87,0.00,,,0.00,0,Wunderground v.1.15,2013-02-25 17:14:00,
2013-02-26 04:19:00,71.3,67.6,29.93,ENE,68,3.0,-999.0,88,0.00,,,0.00,0,Wunderground v.1.15,2013-02-25 17:19:00,
2013-02-26 04:24:00,71.3,67.6,29.93,ENE,68,3.0,-999.0,88,0.00,,,0.00,0,Wunderground v.1.15,2013-02-25 17:24:00,
2013-02-26 04:29:00,71.3,67.6,29.93,ENE,68,3.0,-999.0,88,0.00,,,0.00,0,Wunderground v.1.15,2013-02-25 17:29:00,
2013-02-26 04:34:00,71.3,67.6,29.93,ENE,68,3.0,-999.0,88,0.00,,,0.00,0,Wunderground v.1.15,2013-02-25 17:34:00,
2013-02-26 04:39:00,71.3,67.6,29.93,ENE,68,3.0,-999.0,88,0.00,,,0.00,0,Wunderground v.1.15,2013-02-25 17:39:00,
2013-02-26 04:44:00,71.3,67.6,29.93,ENE,68,3.0,-999.0,88,0.00,,,0.00,0,Wunderground v.1.15,2013-02-25 17:44:00,
2013-02-26 04:49:00,71.0,67.6,29.93,ENE,68,3.0,-999.0,89,0.00,,,0.00,0,Wunderground v.1.15,2013-02-25 17:49:00,
2013-02-26 04:54:00,71.0,67.6,29.93,ENE,68,3.0,-999.0,89,0.00,,,0.00,0,Wunderground v.1.15,2013-02-25 17:54:00,
2013-02-26 04:59:00,71.0,67.6,29.93,ENE,68,3.0,-999.0,89,0.00,,,0.00,0,Wunderground v.1.15,2013-02-25 17:59:00,
2013-02-26 05:04:00,71.0,67.6,29.93,ENE,68,3.0,-999.0,89,0.00,,,0.00,0,Wunderground v.1.15,2013-02-25 18:04:00,
2013-02-26 05:09:00,71.0,67.6,29.93,ENE,68,3.0,-999.0,89,0.00,,,0.00,0,Wunderground v.1.15,2013-02-25 18:09:00,
2013-02-26 05:14:00,71.0,67.6,29.93,ENE,68,3.0,-999.0,89,0.00,,,0.00,0,Wunderground v.1.15,2013-02-25 18:14:00,
2013-02-26 05:19:00,70.5,67.1,29.94,ENE,68,2.0,-999.0,89,0.00,,,0.00,0,Wunderground v.1.15,2013-02-25 18:19:00,
2013-02-26 05:24:00,70.5,67.1,29.94,ENE,68,2.0,-999.0,89,0.00,,,0.00,0,Wunderground v.1.15,2013-02-25 18:24:00,
2013-02-26 05:29:00,70.5,67.1,29.94,ENE,68,2.0,-999.0,89,0.00,,,0.00,0,Wunderground v.1.15,2013-02-25 18:29:00,
2013-02-26 05:34:00,70.5,67.1,29.94,ENE,68,2.0,-999.0,89,0.00,,,0.00,0,Wunderground v.1.15,2013-02-25 18:34:00,
2013-02-26 05:39:00,70.5,67.1,29.94,ENE,68,2.0,-999.0,89,0.00,,,0.00,0,Wunderground v.1.15,2013-02-25 18:39:00,
2013-02-26 05:44:00,70.5,67.1,29.94,ENE,68,2.0,-999.0,89,0.00,,,0.00,0,Wunderground v.1.15,2013-02-25 18:44:00,
2013-02-26 05:49:00,70.2,67.1,29.94,ENE,68,3.0,-999.0,90,0.00,,,0.00,0,Wunderground v.1.15,2013-02-25 18:49:00,
2013-02-26 05:54:00,70.2,67.1,29.94,ENE,68,3.0,-999.0,90,0.00,,,0.00,0,Wunderground v.1.15,2013-02-25 18:54:00,
2013-02-26 05:59:00,70.2,67.1,29.94,ENE,68,3.0,-999.0,90,0.00,,,0.00,0,Wunderground v.1.15,2013-02-25 18:59:00,
2013-02-26 06:04:00,70.2,67.1,29.94,ENE,68,3.0,-999.0,90,0.00,,,0.00,0,Wunderground v.1.15,2013-02-25 19:04:00,
2013-02-26 06:09:00,70.2,67.1,29.94,ENE,68,3.0,-999.0,90,0.00,,,0.00,0,Wunderground v.1.15,2013-02-25 19:09:00,
2013-02-26 06:14:00,70.2,67.1,29.94,ENE,68,3.0,-999.0,90,0.00,,,0.00,0,Wunderground v.1.15,2013-02-25 19:14:00,
2013-02-26 06:19:00,70.2,67.1,29.94,ENE,68,2.0,-999.0,90,0.00,,,0.00,0,Wunderground v.1.15,2013-02-25 19:19:00,
2013-02-26 06:24:00,70.2,67.1,29.94,ENE,68,2.0,-999.0,90,0.00,,,0.00,0,Wunderground v.1.15,2013-02-25 19:24:00,
2013-02-26 06:29:00,70.2,67.1,29.94,ENE,68,2.0,-999.0,90,0.00,,,0.00,0,Wunderground v.1.15,2013-02-25 19:29:00,
2013-02-26 06:34:00,70.2,67.1,29.94,ENE,68,2.0,-999.0,90,0.00,,,0.00,0,Wunderground v.1.15,2013-02-25 19:34:00,
2013-02-26 06:39:00,70.2,67.1,29.94,ENE,68,2.0,-999.0,90,0.00,,,0.00,0,Wunderground v.1.15,2013-02-25 19:39:00,
2013-02-26 06:44:00,70.2,67.1,29.94,ENE,68,2.0,-999.0,90,0.00,,,0.00,0,Wunderground v.1.15,2013-02-25 19:44:00,
2013-02-26 06:49:00,70.0,67.3,29.96,ENE,68,3.0,-999.0,91,0.00,,,0.00,8,Wunderground v.1.15,2013-02-25 19:49:00,
2013-02-26 06:54:00,70.0,67.3,29.96,ENE,68,3.0,-999.0,91,0.00,,,0.00,8,Wunderground v.1.15,2013-02-25 19:54:00,
2013-02-26 06:59:00,70.0,67.3,29.96,ENE,68,3.0,-999.0,91,0.00,,,0.00,8,Wunderground v.1.15,2013-02-25 19:59:00,
2013-02-26 07:04:00,70.0,67.3,29.96,ENE,68,3.0,-999.0,91,0.00,,,0.00,8,Wunderground v.1.15,2013-02-25 20:04:00,
2013-02-26 07:09:00,70.0,67.3,29.96,ENE,68,3.0,-999.0,91,0.00,,,0.00,8,Wunderground v.1.15,2013-02-25 20:09:00,
2013-02-26 07:14:00,70.0,67.3,29.96,ENE,68,3.0,-999.0,91,0.00,,,0.00,8,Wunderground v.1.15,2013-02-25 20:14:00,
2013-02-26 07:19:00,70.0,67.3,29.97,ENE,68,2.0,-999.0,91,0.00,,,0.00,35,Wunderground v.1.15,2013-02-25 20:19:00,
2013-02-26 07:24:00,70.0,67.3,29.97,ENE,68,2.0,-999.0,91,0.00,,,0.00,35,Wunderground v.1.15,2013-02-25 20:24:00,
2013-02-26 07:29:00,70.0,67.3,29.97,ENE,68,2.0,-999.0,91,0.00,,,0.00,35,Wunderground v.1.15,2013-02-25 20:29:00,
2013-02-26 07:34:00,70.0,67.3,29.97,ENE,68,2.0,-999.0,91,0.00,,,0.00,35,Wunderground v.1.15,2013-02-25 20:34:00,
2013-02-26 07:39:00,70.0,67.3,29.97,ENE,68,2.0,-999.0,91,0.00,,,0.00,35,Wunderground v.1.15,2013-02-25 20:39:00,
2013-02-26 07:44:00,70.0,67.3,29.97,ENE,68,2.0,-999.0,91,0.00,,,0.00,35,Wunderground v.1.15,2013-02-25 20:44:00,
2013-02-26 07:49:00,70.5,67.7,29.97,NE,45,2.0,-999.0,91,0.00,,,0.00,51,Wunderground v.1.15,2013-02-25 20:49:00,
2013-02-26 07:54:00,70.5,67.7,29.97,NE,45,2.0,-999.0,91,0.00,,,0.00,51,Wunderground v.1.15,2013-02-25 20:54:00,
2013-02-26 07:59:00,70.5,67.7,29.97,NE,45,2.0,-999.0,91,0.00,,,0.00,51,Wunderground v.1.15,2013-02-25 20:59:00,
2013-02-26 08:04:00,70.5,67.7,29.97,NE,45,2.0,-999.0,91,0.00,,,0.00,51,Wunderground v.1.15,2013-02-25 21:04:00,
2013-02-26 08:09:00,70.5,67.7,29.97,NE,45,2.0,-999.0,91,0.00,,,0.00,51,Wunderground v.1.15,2013-02-25 21:09:00,
2013-02-26 08:14:00,70.5,67.7,29.97,NE,45,2.0,-999.0,91,0.00,,,0.00,51,Wunderground v.1.15,2013-02-25 21:14:00,
2013-02-26 08:19:00,71.8,67.7,29.98,NE,45,3.0,-999.0,87,0.00,,,0.00,118,Wunderground v.1.15,2013-02-25 21:19:00,
2013-02-26 08:24:00,71.8,67.7,29.98,NE,45,3.0,-999.0,87,0.00,,,0.00,118,Wunderground v.1.15,2013-02-25 21:24:00,
2013-02-26 08:29:00,71.8,67.7,29.98,NE,45,3.0,-999.0,87,0.00,,,0.00,118,Wunderground v.1.15,2013-02-25 21:29:00,
2013-02-26 08:34:00,71.8,67.7,29.98,NE,45,3.0,-999.0,87,0.00,,,0.00,118,Wunderground v.1.15,2013-02-25 21:34:00,
2013-02-26 08:39:00,71.8,67.7,29.98,NE,45,3.0,-999.0,87,0.00,,,0.00,118,Wunderground v.1.15,2013-02-25 21:39:00,
2013-02-26 08:44:00,71.8,67.7,29.98,NE,45,3.0,-999.0,87,0.00,,,0.00,118,Wunderground v.1.15,2013-02-25 21:44:00,
2013-02-26 08:49:00,73.6,68.1,29.99,NE,45,4.0,-999.0,83,0.00,,,0.00,275,Wunderground v.1.15,2013-02-25 21:49:00,
2013-02-26 08:54:00,73.6,68.1,29.99,NE,45,4.0,-999.0,83,0.00,,,0.00,275,Wunderground v.1.15,2013-02-25 21:54:00,
2013-02-26 08:59:00,73.6,68.1,29.99,NE,45,4.0,-999.0,83,0.00,,,0.00,275,Wunderground v.1.15,2013-02-25 21:59:00,
2013-02-26 09:04:00,73.6,68.1,29.99,NE,45,4.0,-999.0,83,0.00,,,0.00,275,Wunderground v.1.15,2013-02-25 22:04:00,
2013-02-26 09:09:00,73.6,68.1,29.99,NE,45,4.0,-999.0,83,0.00,,,0.00,275,Wunderground v.1.15,2013-02-25 22:09:00,
2013-02-26 09:14:00,73.6,68.1,29.99,NE,45,4.0,-999.0,83,0.00,,,0.00,275,Wunderground v.1.15,2013-02-25 22:14:00,
2013-02-26 09:19:00,75.7,67.6,29.99,ENE,68,4.0,-999.0,76,0.00,,,0.00,471,Wunderground v.1.15,2013-02-25 22:19:00,
2013-02-26 09:24:00,75.7,67.6,29.99,ENE,68,4.0,-999.0,76,0.00,,,0.00,471,Wunderground v.1.15,2013-02-25 22:24:00,
2013-02-26 09:29:00,75.7,67.6,29.99,ENE,68,4.0,-999.0,76,0.00,,,0.00,471,Wunderground v.1.15,2013-02-25 22:29:00,
2013-02-26 09:34:00,75.7,67.6,29.99,ENE,68,4.0,-999.0,76,0.00,,,0.00,471,Wunderground v.1.15,2013-02-25 22:34:00,
2013-02-26 09:39:00,75.7,67.6,29.99,ENE,68,4.0,-999.0,76,0.00,,,0.00,471,Wunderground v.1.15,2013-02-25 22:39:00,
2013-02-26 09:44:00,75.7,67.6,29.99,ENE,68,4.0,-999.0,76,0.00,,,0.00,471,Wunderground v.1.15,2013-02-25 22:44:00,
2013-02-26 09:49:00,77.9,69.3,29.99,ENE,68,4.0,-999.0,75,0.00,,,0.00,592,Wunderground v.1.15,2013-02-25 22:49:00,
2013-02-26 09:54:00,77.9,69.3,29.99,ENE,68,4.0,-999.0,75,0.00,,,0.00,592,Wunderground v.1.15,2013-02-25 22:54:00,
2013-02-26 09:59:00,78.0,69.4,29.99,ENE,72,5.0,5.0,75,0.00,,,0.00,635,Wunderground v.1.15,2013-02-25 22:59:00,
2013-02-26 10:04:00,78.5,69.1,29.99,East,87,4.0,6.0,73,0.00,,,0.00,656,Wunderground v.1.15,2013-02-25 23:04:00,
2013-02-26 10:09:00,77.9,69.3,29.99,ENE,68,4.0,-999.0,75,0.00,,,0.00,592,Wunderground v.1.15,2013-02-25 23:09:00,
2013-02-26 10:14:00,79.0,69.6,29.99,NE,37,5.0,5.0,73,0.00,,,0.00,663,Wunderground v.1.15,2013-02-25 23:14:00,
2013-02-26 10:19:00,79.8,69.6,29.99,NNE,24,4.0,8.0,71,0.00,,,0.00,703,Wunderground v.1.15,2013-02-25 23:19:00,
2013-02-26 10:24:00,80.2,69.5,29.99,NE,49,4.0,6.0,70,0.00,,,0.00,722,Wunderground v.1.15,2013-02-25 23:24:00,
2013-02-26 10:29:00,80.7,69.6,29.99,NNE,30,4.0,6.0,69,0.00,,,0.00,708,Wunderground v.1.15,2013-02-25 23:29:00,
2013-02-26 10:34:00,79.2,68.1,29.99,ENE,68,4.0,-999.0,69,0.00,,,0.00,685,Wunderground v.1.15,2013-02-25 23:34:00,
2013-02-26 10:39:00,80.7,70.4,29.99,NNE,19,2.0,4.0,71,0.00,,,0.00,710,Wunderground v.1.15,2013-02-25 23:39:00,
2013-02-26 10:44:00,79.2,68.1,29.99,ENE,68,4.0,-999.0,69,0.00,,,0.00,685,Wunderground v.1.15,2013-02-25 23:44:00,
2013-02-26 10:49:00,79.8,69.6,29.99,NE,53,4.0,4.0,71,0.00,,,0.00,851,Wunderground v.1.15,2013-02-25 23:49:00,
2013-02-26 10:54:00,81.3,70.6,29.99,East,79,3.0,3.0,70,0.00,,,0.00,853,Wunderground v.1.15,2013-02-25 23:54:00,
2013-02-26 10:59:00,81.3,70.6,29.99,ENE,69,2.0,9.0,70,0.00,,,0.00,854,Wunderground v.1.15,2013-02-25 23:59:00,
2013-02-26 11:04:00,81.5,70.3,29.99,ENE,71,3.0,3.0,69,0.00,,,0.00,893,Wunderground v.1.15,2013-02-26 00:04:00,
2013-02-26 11:09:00,80.5,69.8,29.99,ENE,75,3.0,3.0,70,0.00,,,0.00,265,Wunderground v.1.15,2013-02-26 00:09:00,
2013-02-26 11:14:00,80.9,70.2,29.99,ENE,68,3.0,-999.0,70,0.00,,,0.00,764,Wunderground v.1.15,2013-02-26 00:14:00,
2013-02-26 11:19:00,79.8,69.6,29.99,West,267,3.0,3.0,71,0.00,,,0.00,396,Wunderground v.1.15,2013-02-26 00:19:00,
2013-02-26 11:24:00,78.5,68.7,29.99,East,98,3.0,3.0,72,0.00,,,0.00,244,Wunderground v.1.15,2013-02-26 00:24:00,
2013-02-26 11:29:00,77.9,68.5,29.99,NE,51,3.0,3.0,73,0.00,,,0.00,255,Wunderground v.1.15,2013-02-26 00:29:00,
2013-02-26 11:34:00,79.9,70.5,29.99,ENE,68,3.0,-999.0,73,0.00,,,0.00,462,Wunderground v.1.15,2013-02-26 00:34:00,
2013-02-26 11:39:00,77.9,68.9,29.99,NW,306,3.0,3.0,74,0.00,,,0.00,202,Wunderground v.1.15,2013-02-26 00:39:00,
2013-02-26 11:44:00,77.4,68.9,29.99,North,5,3.0,3.0,75,0.00,,,0.00,202,Wunderground v.1.15,2013-02-26 00:44:00,
2013-02-26 11:49:00,77.4,68.9,29.99,ENE,77,3.0,3.0,75,0.00,,,0.00,169,Wunderground v.1.15,2013-02-26 00:49:00,
2013-02-26 11:54:00,77.5,69.7,29.99,ENE,68,3.0,-999.0,77,0.00,,,0.00,201,Wunderground v.1.15,2013-02-26 00:54:00,
2013-02-26 11:59:00,76.8,69.0,29.99,ENE,67,3.0,3.0,77,0.00,,,0.00,162,Wunderground v.1.15,2013-02-26 00:59:00,
2013-02-26 12:04:00,76.4,70.5,29.99,NNE,26,3.0,3.0,82,0.00,,,0.00,406,Wunderground v.1.15,2013-02-26 01:04:00,
2013-02-26 12:09:00,77.3,70.3,29.98,ENE,61,3.0,3.0,79,0.00,,,0.00,526,Wunderground v.1.15,2013-02-26 01:09:00,
2013-02-26 12:14:00,78.6,68.8,29.99,East,86,3.0,3.0,72,0.00,,,0.00,448,Wunderground v.1.15,2013-02-26 01:14:00,
2013-02-26 12:19:00,79.7,70.3,29.98,SE,136,2.0,3.0,73,0.00,,,0.00,438,Wunderground v.1.15,2013-02-26 01:19:00,
2013-02-26 12:24:00,78.3,67.7,29.98,ENE,68,3.0,-999.0,70,0.00,,,0.00,435,Wunderground v.1.15,2013-02-26 01:24:00,
2013-02-26 12:29:00,80.2,68.7,29.98,East,94,3.0,3.0,68,0.00,,,0.00,664,Wunderground v.1.15,2013-02-26 01:29:00,
2013-02-26 12:34:00,78.3,67.7,29.98,ENE,68,3.0,-999.0,70,0.00,,,0.00,435,Wunderground v.1.15,2013-02-26 01:34:00,
2013-02-26 12:39:00,81.9,68.5,29.98,North,11,4.0,5.0,64,0.00,,,0.00,932,Wunderground v.1.15,2013-02-26 01:39:00,
2013-02-26 12:44:00,81.5,67.7,29.98,East,92,5.0,8.0,63,0.00,,,0.00,510,Wunderground v.1.15,2013-02-26 01:44:00,
2013-02-26 12:49:00,81.4,68.1,29.98,NNE,28,6.0,8.0,64,0.00,,,0.00,533,Wunderground v.1.15,2013-02-26 01:49:00,
2013-02-26 12:54:00,81.2,68.3,29.98,NNE,31,5.0,5.0,65,0.00,,,0.00,431,Wunderground v.1.15,2013-02-26 01:54:00,
2013-02-26 12:59:00,81.2,69.2,29.98,ENE,68,5.0,-999.0,67,0.00,,,0.00,554,Wunderground v.1.15,2013-02-26 01:59:00,
2013-02-26 13:04:00,79.4,68.3,29.98,ENE,57,4.0,4.0,69,0.00,,,0.00,258,Wunderground v.1.15,2013-02-26 02:04:00,
2013-02-26 13:09:00,79.0,69.2,29.97,NE,34,4.0,4.0,72,0.00,,,0.00,362,Wunderground v.1.15,2013-02-26 02:09:00,
2013-02-26 13:14:00,79.5,70.1,29.97,North,10,3.0,4.0,73,0.00,,,0.00,422,Wunderground v.1.15,2013-02-26 02:14:00,
2013-02-26 13:19:00,78.7,68.9,29.97,ENE,76,3.0,4.0,72,0.00,,,0.00,236,Wunderground v.1.15,2013-02-26 02:19:00,
2013-02-26 13:24:00,79.1,70.5,29.97,ENE,68,3.0,-999.0,75,0.00,,,0.00,354,Wunderground v.1.15,2013-02-26 02:24:00,
2013-02-26 13:29:00,78.9,70.3,29.97,NNE,31,3.0,3.0,75,0.00,,,0.00,520,Wunderground v.1.15,2013-02-26 02:29:00,
2013-02-26 13:34:00,79.1,70.5,29.97,ENE,68,3.0,-999.0,75,0.00,,,0.00,354,Wunderground v.1.15,2013-02-26 02:34:00,
2013-02-26 13:39:00,78.6,70.4,29.97,North,360,4.0,4.0,76,0.00,,,0.00,529,Wunderground v.1.15,2013-02-26 02:39:00,
2013-02-26 13:44:00,78.1,69.9,29.97,ENE,61,5.0,5.0,76,0.00,,,0.00,652,Wunderground v.1.15,2013-02-26 02:44:00,
2013-02-26 13:49:00,78.4,70.2,29.97,NE,48,5.0,5.0,76,0.00,,,0.00,497,Wunderground v.1.15,2013-02-26 02:49:00,
2013-02-26 13:54:00,78.3,70.5,29.96,NE,51,4.0,4.0,77,0.00,,,0.00,526,Wunderground v.1.15,2013-02-26 02:54:00,
2013-02-26 13:59:00,78.6,70.4,29.96,ENE,68,4.0,-999.0,76,0.00,,,0.00,536,Wunderground v.1.15,2013-02-26 02:59:00,
2013-02-26 14:04:00,79.4,70.4,29.96,ENE,75,3.0,4.0,74,0.00,,,0.00,534,Wunderground v.1.15,2013-02-26 03:04:00,
2013-02-26 14:09:00,79.5,69.7,29.96,ESE,114,3.0,4.0,72,0.00,,,0.00,589,Wunderground v.1.15,2013-02-26 03:09:00,
2013-02-26 14:14:00,79.8,70.0,29.96,NE,36,4.0,11.0,72,0.00,,,0.00,480,Wunderground v.1.15,2013-02-26 03:14:00,
2013-02-26 14:19:00,80.8,70.5,29.95,ENE,59,4.0,11.0,71,0.00,,,0.00,784,Wunderground v.1.15,2013-02-26 03:19:00,
2013-02-26 14:24:00,80.2,69.1,29.95,NE,45,4.0,-999.0,69,0.00,,,0.00,625,Wunderground v.1.15,2013-02-26 03:24:00,
2013-02-26 14:29:00,81.6,70.4,29.95,NE,55,4.0,4.0,69,0.00,,,0.00,557,Wunderground v.1.15,2013-02-26 03:29:00,
2013-02-26 14:34:00,80.2,69.1,29.95,NE,45,4.0,-999.0,69,0.00,,,0.00,625,Wunderground v.1.15,2013-02-26 03:34:00,
2013-02-26 14:39:00,79.6,69.8,29.95,NNE,18,4.0,4.0,72,0.00,,,0.00,406,Wunderground v.1.15,2013-02-26 03:39:00,
2013-02-26 14:44:00,79.4,70.4,29.95,NE,37,5.0,5.0,74,0.00,,,0.00,345,Wunderground v.1.15,2013-02-26 03:44:00,
2013-02-26 14:49:00,78.8,70.2,29.94,NE,53,4.0,5.0,75,0.00,,,0.00,243,Wunderground v.1.15,2013-02-26 03:49:00,
2013-02-26 14:54:00,78.2,70.0,29.94,East,84,3.0,3.0,76,0.00,,,0.00,283,Wunderground v.1.15,2013-02-26 03:54:00,
2013-02-26 14:59:00,79.5,70.9,29.94,ENE,68,3.0,-999.0,75,0.00,,,0.00,359,Wunderground v.1.15,2013-02-26 03:59:00,
2013-02-26 15:04:00,78.6,69.6,29.94,South,177,2.0,2.0,74,0.00,,,0.00,457,Wunderground v.1.15,2013-02-26 04:04:00,
2013-02-26 15:09:00,79.0,70.0,29.93,ENE,58,3.0,8.0,74,0.00,,,0.00,490,Wunderground v.1.15,2013-02-26 04:09:00,
2013-02-26 15:14:00,78.9,69.9,29.93,NE,40,4.0,4.0,74,0.00,,,0.00,415,Wunderground v.1.15,2013-02-26 04:14:00,
2013-02-26 15:19:00,78.8,69.8,29.93,SSE,167,4.0,4.0,74,0.00,,,0.00,396,Wunderground v.1.15,2013-02-26 04:19:00,
2013-02-26 15:24:00,78.7,70.5,29.93,ENE,68,4.0,-999.0,76,0.00,,,0.00,428,Wunderground v.1.15,2013-02-26 04:24:00,
2013-02-26 15:29:00,78.4,70.2,29.93,NE,46,4.0,7.0,76,0.00,,,0.00,483,Wunderground v.1.15,2013-02-26 04:29:00,
2013-02-26 15:34:00,78.7,70.5,29.93,ENE,68,4.0,-999.0,76,0.00,,,0.00,428,Wunderground v.1.15,2013-02-26 04:34:00,
2013-02-26 15:39:00,80.3,70.9,29.92,East,100,4.0,5.0,73,0.00,,,0.00,710,Wunderground v.1.15,2013-02-26 04:39:00,
2013-02-26 15:44:00,79.2,69.8,29.92,ENE,65,5.0,5.0,73,0.00,,,0.00,455,Wunderground v.1.15,2013-02-26 04:44:00,
2013-02-26 15:49:00,79.3,70.3,29.92,NE,49,5.0,5.0,74,0.00,,,0.00,487,Wunderground v.1.15,2013-02-26 04:49:00,
2013-02-26 15:54:00,79.2,70.6,29.92,East,90,4.0,-999.0,75,0.00,,,0.00,554,Wunderground v.1.15,2013-02-26 04:54:00,
2013-02-26 15:59:00,78.6,70.0,29.92,NE,47,5.0,8.0,75,0.00,,,0.00,548,Wunderground v.1.15,2013-02-26 04:59:00,
2013-02-26 16:04:00,79.3,70.7,29.92,North,5,4.0,4.0,75,0.00,,,0.00,543,Wunderground v.1.15,2013-02-26 05:04:00,
2013-02-26 16:09:00,79.7,70.7,29.92,NE,48,4.0,4.0,74,0.00,,,0.00,494,Wunderground v.1.15,2013-02-26 05:09:00,
2013-02-26 16:14:00,79.5,70.1,29.92,North,360,5.0,5.0,73,0.00,,,0.00,272,Wunderground v.1.15,2013-02-26 05:14:00,
2013-02-26 16:19:00,78.7,69.7,29.91,WNW,293,5.0,5.0,74,0.00,,,0.00,302,Wunderground v.1.15,2013-02-26 05:19:00,
2013-02-26 16:24:00,78.6,70.0,29.91,East,95,4.0,4.0,75,0.00,,,0.00,278,Wunderground v.1.15,2013-02-26 05:24:00,
2013-02-26 16:29:00,78.5,70.3,29.91,East,84,3.0,4.0,76,0.00,,,0.00,302,Wunderground v.1.15,2013-02-26 05:29:00,
2013-02-26 16:34:00,79.1,70.5,29.91,NE,45,4.0,-999.0,75,0.00,,,0.00,367,Wunderground v.1.15,2013-02-26 05:34:00,
2013-02-26 16:39:00,78.6,69.6,29.91,SW,221,3.0,3.0,74,0.00,,,0.00,443,Wunderground v.1.15,2013-02-26 05:39:00,
2013-02-26 16:44:00,78.3,69.7,29.91,ENE,60,4.0,4.0,75,0.00,,,0.00,264,Wunderground v.1.15,2013-02-26 05:44:00,
2013-02-26 16:49:00,78.3,70.1,29.90,NE,50,4.0,5.0,76,0.00,,,0.00,381,Wunderground v.1.15,2013-02-26 05:49:00,
2013-02-26 16:54:00,78.1,69.5,29.90,ESE,112,4.0,4.0,75,0.00,,,0.00,339,Wunderground v.1.15,2013-02-26 05:54:00,
2013-02-26 16:59:00,78.4,70.2,29.90,ENE,68,4.0,-999.0,76,0.00,,,0.00,311,Wunderground v.1.15,2013-02-26 05:59:00,
2013-02-26 17:04:00,78.2,69.6,29.90,ESE,121,4.0,8.0,75,0.00,,,0.00,318,Wunderground v.1.15,2013-02-26 06:04:00,
2013-02-26 17:09:00,77.6,69.4,29.90,NE,42,5.0,8.0,76,0.00,,,0.00,290,Wunderground v.1.15,2013-02-26 06:09:00,
2013-02-26 17:14:00,77.2,69.4,29.90,East,90,5.0,7.0,77,0.00,,,0.00,250,Wunderground v.1.15,2013-02-26 06:14:00,
2013-02-26 17:19:00,76.9,69.1,29.90,NNE,28,5.0,7.0,77,0.00,,,0.00,278,Wunderground v.1.15,2013-02-26 06:19:00,
2013-02-26 17:24:00,77.3,69.9,29.90,ENE,68,5.0,-999.0,78,0.00,,,0.00,250,Wunderground v.1.15,2013-02-26 06:24:00,
2013-02-26 17:29:00,76.3,68.9,29.90,East,79,5.0,5.0,78,0.00,,,0.00,142,Wunderground v.1.15,2013-02-26 06:29:00,
2013-02-26 17:34:00,77.3,69.9,29.90,ENE,68,5.0,-999.0,78,0.00,,,0.00,250,Wunderground v.1.15,2013-02-26 06:34:00,
2013-02-26 17:39:00,75.9,68.5,29.90,NE,55,5.0,9.0,78,0.00,,,0.00,174,Wunderground v.1.15,2013-02-26 06:39:00,
2013-02-26 17:44:00,75.5,68.5,29.90,ENE,68,5.0,15.0,79,0.00,,,0.00,172,Wunderground v.1.15,2013-02-26 06:44:00,
2013-02-26 17:49:00,75.7,68.7,29.90,ESE,112,6.0,15.0,79,0.00,,,0.00,165,Wunderground v.1.15,2013-02-26 06:49:00,
2013-02-26 17:54:00,75.7,69.1,29.90,ENE,68,5.0,-999.0,80,0.00,,,0.00,165,Wunderground v.1.15,2013-02-26 06:54:00,
2013-02-26 17:59:00,75.3,68.7,29.90,ENE,73,6.0,6.0,80,0.00,,,0.00,153,Wunderground v.1.15,2013-02-26 06:59:00,
2013-02-26 18:04:00,75.3,68.3,29.90,NNE,24,5.0,5.0,79,0.00,,,0.00,128,Wunderground v.1.15,2013-02-26 07:04:00,
2013-02-26 18:09:00,75.2,68.6,29.90,NE,38,4.0,7.0,80,0.00,,,0.00,121,Wunderground v.1.15,2013-02-26 07:09:00,
2013-02-26 18:14:00,74.9,68.3,29.90,NE,53,4.0,4.0,80,0.00,,,0.00,104,Wunderground v.1.15,2013-02-26 07:14:00,
2013-02-26 18:19:00,75.0,68.4,29.90,ENE,57,4.0,4.0,80,0.00,,,0.00,100,Wunderground v.1.15,2013-02-26 07:19:00,
2013-02-26 18:24:00,75.0,68.8,29.90,NE,45,4.0,-999.0,81,0.00,,,0.00,111,Wunderground v.1.15,2013-02-26 07:24:00,
2013-02-26 18:29:00,74.7,68.5,29.90,ESE,114,5.0,5.0,81,0.00,,,0.00,97,Wunderground v.1.15,2013-02-26 07:29:00,
2013-02-26 18:34:00,75.0,68.8,29.90,NE,45,4.0,-999.0,81,0.00,,,0.00,111,Wunderground v.1.15,2013-02-26 07:34:00,
2013-02-26 18:39:00,75.1,68.1,29.90,NE,50,3.0,4.0,79,0.00,,,0.00,83,Wunderground v.1.15,2013-02-26 07:39:00,
2013-02-26 18:44:00,75.0,68.0,29.90,ENE,74,4.0,4.0,79,0.00,,,0.00,62,Wunderground v.1.15,2013-02-26 07:44:00,
2013-02-26 18:49:00,74.7,68.1,29.91,ENE,76,4.0,7.0,80,0.00,,,0.00,53,Wunderground v.1.15,2013-02-26 07:49:00,
2013-02-26 18:54:00,74.4,68.2,29.91,ESE,102,4.0,4.0,81,0.00,,,0.00,47,Wunderground v.1.15,2013-02-26 07:54:00,
2013-02-26 18:59:00,74.8,68.6,29.91,NE,45,4.0,-999.0,81,0.00,,,0.00,69,Wunderground v.1.15,2013-02-26 07:59:00,
2013-02-26 19:04:00,74.0,68.2,29.91,NNE,15,3.0,5.0,82,0.00,,,0.00,37,Wunderground v.1.15,2013-02-26 08:04:00,
2013-02-26 19:09:00,73.9,68.1,29.91,ENE,65,3.0,5.0,82,0.00,,,0.00,28,Wunderground v.1.15,2013-02-26 08:09:00,
2013-02-26 19:14:00,73.8,68.3,29.91,East,83,4.0,5.0,83,0.00,,,0.00,23,Wunderground v.1.15,2013-02-26 08:14:00,
2013-02-26 19:19:00,73.6,68.1,29.91,East,98,4.0,5.0,83,0.00,,,0.00,18,Wunderground v.1.15,2013-02-26 08:19:00,
2013-02-26 19:24:00,73.4,68.3,29.91,East,86,4.0,5.0,84,0.00,,,0.00,12,Wunderground v.1.15,2013-02-26 08:24:00,
2013-02-26 19:29:00,73.2,68.1,29.91,ENE,64,4.0,5.0,84,0.00,,,0.00,5,Wunderground v.1.15,2013-02-26 08:29:00,
2013-02-26 19:34:00,73.7,68.6,29.92,ENE,68,4.0,-999.0,84,0.00,,,0.00,23,Wunderground v.1.15,2013-02-26 08:34:00,
2013-02-26 19:39:00,73.0,68.2,29.92,NE,55,4.0,5.0,85,0.00,,,0.00,0,Wunderground v.1.15,2013-02-26 08:39:00,
2013-02-26 19:44:00,73.7,68.6,29.92,ENE,68,4.0,-999.0,84,0.00,,,0.00,23,Wunderground v.1.15,2013-02-26 08:44:00,
2013-02-26 19:49:00,72.7,67.9,29.92,East,82,3.0,8.0,85,0.00,,,0.00,0,Wunderground v.1.15,2013-02-26 08:49:00,
2013-02-26 19:54:00,72.6,67.8,29.92,ENE,78,4.0,4.0,85,0.00,,,0.00,0,Wunderground v.1.15,2013-02-26 08:54:00,
2013-02-26 19:59:00,72.5,68.1,29.93,NNW,327,3.0,4.0,86,0.00,,,0.00,0,Wunderground v.1.15,2013-02-26 08:59:00,
2013-02-26 20:04:00,72.4,68.0,29.93,NE,55,3.0,3.0,86,0.00,,,0.00,0,Wunderground v.1.15,2013-02-26 09:04:00,
2013-02-26 20:09:00,72.4,68.0,29.93,East,94,3.0,6.0,86,0.00,,,0.00,0,Wunderground v.1.15,2013-02-26 09:09:00,
2013-02-26 20:14:00,72.8,68.4,29.92,ENE,68,3.0,-999.0,86,0.00,,,0.00,0,Wunderground v.1.15,2013-02-26 09:14:00,
2013-02-26 20:19:00,72.5,67.7,29.93,East,82,4.0,7.0,85,0.00,,,0.00,0,Wunderground v.1.15,2013-02-26 09:19:00,
2013-02-26 20:24:00,72.6,67.8,29.93,ENE,70,4.0,4.0,85,0.00,,,0.00,0,Wunderground v.1.15,2013-02-26 09:24:00,
2013-02-26 20:29:00,72.6,67.5,29.93,North,350,4.0,4.0,84,0.00,,,0.00,0,Wunderground v.1.15,2013-02-26 09:29:00,
2013-02-26 20:34:00,72.5,67.4,29.93,NE,45,4.0,-999.0,84,0.00,,,0.00,0,Wunderground v.1.15,2013-02-26 09:34:00,
2013-02-26 20:39:00,72.7,67.2,29.94,NE,49,4.0,4.0,83,0.00,,,0.00,0,Wunderground v.1.15,2013-02-26 09:39:00,
2013-02-26 20:44:00,72.7,67.2,29.94,NE,35,5.0,5.0,83,0.00,,,0.00,0,Wunderground v.1.15,2013-02-26 09:44:00,
2013-02-26 20:49:00,72.7,66.9,29.94,NE,53,4.0,5.0,82,0.00,,,0.00,0,Wunderground v.1.15,2013-02-26 09:49:00,
2013-02-26 20:54:00,72.7,66.9,29.94,ENE,68,4.0,-999.0,82,0.00,,,0.00,0,Wunderground v.1.15,2013-02-26 09:54:00,
2013-02-26 20:59:00,72.6,66.8,29.94,ENE,59,4.0,4.0,82,0.00,,,0.00,0,Wunderground v.1.15,2013-02-26 09:59:00,
2013-02-26 21:04:00,72.6,66.4,29.95,ENE,71,4.0,4.0,81,0.00,,,0.00,0,Wunderground v.1.15,2013-02-26 10:04:00,
2013-02-26 21:09:00,72.5,66.0,29.95,East,87,4.0,6.0,80,0.00,,,0.00,0,Wunderground v.1.15,2013-02-26 10:09:00,
2013-02-26 21:14:00,72.6,66.1,29.95,NE,36,4.0,9.0,80,0.00,,,0.00,0,Wunderground v.1.15,2013-02-26 10:14:00,
2013-02-26 21:19:00,72.6,65.7,29.95,ENE,69,5.0,9.0,79,0.00,,,0.00,0,Wunderground v.1.15,2013-02-26 10:19:00,
2013-02-26 21:24:00,72.6,65.3,29.95,NE,45,5.0,-999.0,78,0.00,,,0.00,0,Wunderground v.1.15,2013-02-26 10:24:00,
2013-02-26 21:29:00,72.6,65.3,29.95,NNE,16,5.0,6.0,78,0.00,,,0.00,0,Wunderground v.1.15,2013-02-26 10:29:00,
2013-02-26 21:34:00,72.6,65.3,29.95,NE,45,5.0,-999.0,78,0.00,,,0.00,0,Wunderground v.1.15,2013-02-26 10:34:00,
2013-02-26 21:39:00,72.5,65.2,29.95,East,100,5.0,5.0,78,0.00,,,0.00,0,Wunderground v.1.15,2013-02-26 10:39:00,
2013-02-26 21:44:00,72.5,65.2,29.95,NNE,17,4.0,4.0,78,0.00,,,0.00,0,Wunderground v.1.15,2013-02-26 10:44:00,
2013-02-26 21:49:00,72.4,65.5,29.95,ENE,65,4.0,7.0,79,0.00,,,0.00,0,Wunderground v.1.15,2013-02-26 10:49:00,
2013-02-26 21:54:00,72.3,65.4,29.96,North,355,3.0,6.0,79,0.00,,,0.00,0,Wunderground v.1.15,2013-02-26 10:54:00,
2013-02-26 21:59:00,72.5,65.6,29.96,NE,45,4.0,-999.0,79,0.00,,,0.00,0,Wunderground v.1.15,2013-02-26 10:59:00,
2013-02-26 22:04:00,72.2,65.3,29.96,NE,56,3.0,3.0,79,0.00,,,0.00,0,Wunderground v.1.15,2013-02-26 11:04:00,
2013-02-26 22:09:00,72.1,65.2,29.96,North,9,2.0,3.0,79,0.00,,,0.00,0,Wunderground v.1.15,2013-02-26 11:09:00,
2013-02-26 22:14:00,72.1,65.2,29.96,NE,38,2.0,2.0,79,0.00,,,0.00,0,Wunderground v.1.15,2013-02-26 11:14:00,
2013-02-26 22:19:00,72.1,65.6,29.96,NE,34,2.0,2.0,80,0.00,,,0.00,0,Wunderground v.1.15,2013-02-26 11:19:00,
2013-02-26 22:24:00,72.1,65.6,29.96,NE,45,2.0,-999.0,80,0.00,,,0.00,0,Wunderground v.1.15,2013-02-26 11:24:00,
2013-02-26 22:29:00,72.0,65.5,29.96,NE,42,3.0,3.0,80,0.00,,,0.00,0,Wunderground v.1.15,2013-02-26 11:29:00,
2013-02-26 22:34:00,72.0,65.5,29.96,NNE,32,3.0,7.0,80,0.00,,,0.00,0,Wunderground v.1.15,2013-02-26 11:34:00,
2013-02-26 22:39:00,72.1,65.6,29.96,NE,45,2.0,-999.0,80,0.00,,,0.00,0,Wunderground v.1.15,2013-02-26 11:39:00,
2013-02-26 22:44:00,72.1,65.6,29.95,NE,38,4.0,4.0,80,0.00,,,0.00,0,Wunderground v.1.15,2013-02-26 11:44:00,
2013-02-26 22:49:00,72.0,65.5,29.95,ENE,60,3.0,4.0,80,0.00,,,0.00,0,Wunderground v.1.15,2013-02-26 11:49:00,
2013-02-26 22:54:00,72.0,65.5,29.95,East,80,3.0,3.0,80,0.00,,,0.00,0,Wunderground v.1.15,2013-02-26 11:54:00,
2013-02-26 22:59:00,72.0,65.5,29.95,NE,45,3.0,-999.0,80,0.00,,,0.00,0,Wunderground v.1.15,2013-02-26 11:59:00,
2013-02-26 23:04:00,72.0,65.5,29.95,NE,34,3.0,3.0,80,0.00,,,0.00,0,Wunderground v.1.15,2013-02-26 12:04:00,
2013-02-26 23:09:00,72.0,65.5,29.95,NNE,22,3.0,3.0,80,0.00,,,0.00,0,Wunderground v.1.15,2013-02-26 12:09:00,
2013-02-26 23:14:00,72.0,65.5,29.95,ENE,74,3.0,3.0,80,0.00,,,0.00,0,Wunderground v.1.15,2013-02-26 12:14:00,
2013-02-26 23:19:00,71.9,65.4,29.95,NE,44,2.0,3.0,80,0.00,,,0.00,0,Wunderground v.1.15,2013-02-26 12:19:00,
2013-02-26 23:24:00,72.0,65.5,29.95,ENE,76,3.0,3.0,80,0.00,,,0.00,0,Wunderground v.1.15,2013-02-26 12:24:00,
2013-02-26 23:29:00,72.0,65.5,29.95,ENE,68,3.0,-999.0,80,0.00,,,0.00,0,Wunderground v.1.15,2013-02-26 12:29:00,
2013-02-26 23:34:00,72.0,65.5,29.95,NNE,32,3.0,4.0,80,0.00,,,0.00,0,Wunderground v.1.15,2013-02-26 12:34:00,
2013-02-26 23:39:00,72.0,65.5,29.95,ENE,68,3.0,-999.0,80,0.00,,,0.00,0,Wunderground v.1.15,2013-02-26 12:39:00,
2013-02-26 23:44:00,72.0,65.5,29.95,NE,42,2.0,2.0,80,0.00,,,0.00,0,Wunderground v.1.15,2013-02-26 12:44:00,
2013-02-26 23:49:00,71.9,65.4,29.95,North,360,3.0,5.0,80,0.00,,,0.00,0,Wunderground v.1.15,2013-02-26 12:49:00,
2013-02-26 23:54:00,71.9,65.4,29.94,NNE,31,2.0,2.0,80,0.00,,,0.00,0,Wunderground v.1.15,2013-02-26 12:54:00,
2013-02-26 23:59:00,71.9,65.4,29.94,NNE,30,3.0,3.0,80,0.00,,,0.00,0,Wunderground v.1.15,2013-02-26 12:59:00,